createdAt,value
2018-11-27T00:00:27.771Z,0.20
2018-11-27T00:03:04.434Z,0.20
2018-11-27T00:05:34.139Z,0.20
2018-11-27T00:08:03.114Z,0.20
2018-11-27T00:10:33.255Z,0.20
2018-11-27T00:13:02.066Z,0.20
2018-11-27T00:15:30.962Z,0.30
2018-11-27T00:18:00.080Z,0.30
2018-11-27T00:20:28.952Z,0.30
2018-11-27T00:22:57.705Z,0.30
2018-11-27T00:25:26.594Z,0.30
2018-11-27T00:27:55.395Z,0.20
2018-11-27T00:30:24.291Z,0.20
2018-11-27T00:32:53.148Z,0.20
2018-11-27T00:35:21.917Z,0.30
2018-11-27T00:37:50.887Z,0.20
2018-11-27T00:40:21.042Z,0.30
2018-11-27T00:42:49.896Z,0.30
2018-11-27T00:45:19.669Z,0.20
2018-11-27T00:47:49.249Z,0.30
2018-11-27T00:50:20.230Z,0.30
2018-11-27T00:52:49.273Z,0.20
2018-11-27T00:55:18.837Z,0.20
2018-11-27T00:57:49.877Z,0.10
2018-11-27T01:00:19.602Z,0.10
2018-11-27T01:02:48.490Z,0.10
2018-11-27T01:05:18.639Z,0.00
2018-11-27T01:07:47.603Z,0.10
2018-11-27T01:10:19.337Z,0.10
2018-11-27T01:12:48.166Z,0.00
2018-11-27T01:15:17.213Z,0.00
2018-11-27T01:17:48.908Z,0.00
2018-11-27T01:20:21.269Z,0.10
2018-11-27T01:22:50.145Z,0.00
2018-11-27T01:25:18.921Z,0.10
2018-11-27T01:27:47.749Z,0.10
2018-11-27T01:30:17.393Z,0.10
2018-11-27T01:32:46.365Z,0.10
2018-11-27T01:35:16.136Z,0.20
2018-11-27T01:37:45.104Z,0.20
2018-11-27T01:40:18.586Z,0.20
2018-11-27T01:42:48.329Z,0.20
2018-11-27T01:45:18.238Z,0.30
2018-11-27T01:47:47.236Z,0.20
2018-11-27T01:50:16.943Z,0.30
2018-11-27T01:52:45.807Z,0.20
2018-11-27T01:55:15.429Z,0.20
2018-11-27T01:57:44.294Z,0.30
2018-11-27T02:00:22.656Z,0.30
2018-11-27T02:02:51.698Z,0.30
2018-11-27T02:05:20.849Z,0.20
2018-11-27T02:07:49.665Z,0.30
2018-11-27T02:10:18.547Z,0.30
2018-11-27T02:12:48.329Z,0.30
2018-11-27T02:15:20.009Z,0.30
2018-11-27T02:17:48.862Z,0.40
2018-11-27T02:20:18.361Z,0.40
2018-11-27T02:22:47.262Z,0.40
2018-11-27T02:25:30.789Z,0.40
2018-11-27T02:27:59.562Z,0.50
2018-11-27T02:30:28.855Z,0.50
2018-11-27T02:32:57.746Z,0.50
2018-11-27T02:35:27.109Z,0.50
2018-11-27T02:37:56.854Z,0.50
2018-11-27T02:40:25.657Z,0.50
2018-11-27T02:42:54.491Z,0.50
2018-11-27T02:45:24.358Z,0.50
2018-11-27T02:47:53.742Z,0.40
2018-11-27T02:50:23.686Z,0.50
2018-11-27T02:52:52.438Z,0.50
2018-11-27T02:55:24.363Z,0.50
2018-11-27T02:57:53.125Z,0.50
2018-11-27T03:00:25.004Z,0.50
2018-11-27T03:02:53.914Z,0.40
2018-11-27T03:05:30.655Z,0.40
2018-11-27T03:07:59.500Z,0.50
2018-11-27T03:10:28.300Z,0.50
2018-11-27T03:12:57.328Z,0.40
2018-11-27T03:15:26.065Z,0.50
2018-11-27T03:17:54.913Z,0.50
2018-11-27T03:20:23.626Z,0.50
2018-11-27T03:22:52.370Z,0.60
2018-11-27T03:25:22.110Z,0.60
2018-11-27T03:27:51.918Z,0.60
2018-11-27T03:30:22.345Z,0.50
2018-11-27T03:32:51.238Z,0.60
2018-11-27T03:35:20.862Z,0.50
2018-11-27T03:37:50.036Z,0.50
2018-11-27T03:40:20.775Z,0.50
2018-11-27T03:42:49.575Z,0.50
2018-11-27T03:45:19.125Z,0.50
2018-11-27T03:47:47.921Z,0.50
2018-11-27T03:50:18.109Z,0.50
2018-11-27T03:52:46.917Z,0.50
2018-11-27T03:55:15.752Z,0.50
2018-11-27T03:57:44.587Z,0.50
2018-11-27T04:00:21.395Z,0.50
2018-11-27T04:02:52.626Z,0.40
2018-11-27T04:05:21.780Z,0.40
2018-11-27T04:07:50.945Z,0.40
2018-11-27T04:10:20.262Z,0.50
2018-11-27T04:12:49.013Z,0.50
2018-11-27T04:15:17.870Z,0.40
2018-11-27T04:17:46.766Z,0.40
2018-11-27T04:20:15.547Z,0.40
2018-11-27T04:22:44.674Z,0.40
2018-11-27T04:25:14.520Z,0.40
2018-11-27T04:27:43.537Z,0.40
2018-11-27T04:30:16.605Z,0.40
2018-11-27T04:32:45.496Z,0.40
2018-11-27T04:35:18.776Z,0.30
2018-11-27T04:37:47.994Z,0.30
2018-11-27T04:40:20.719Z,0.30
2018-11-27T04:42:49.607Z,0.40
2018-11-27T04:45:20.396Z,0.40
2018-11-27T04:47:49.250Z,0.40
2018-11-27T04:50:18.659Z,0.50
2018-11-27T04:52:47.482Z,0.40
2018-11-27T04:55:20.098Z,0.40
2018-11-27T04:57:50.758Z,0.40
2018-11-27T05:00:22.200Z,0.40
2018-11-27T05:02:51.147Z,0.50
2018-11-27T05:05:20.156Z,0.40
2018-11-27T05:07:48.964Z,0.40
2018-11-27T05:10:20.226Z,0.30
2018-11-27T05:12:49.021Z,0.30
2018-11-27T05:15:18.727Z,0.40
2018-11-27T05:17:48.670Z,0.40
2018-11-27T05:20:17.462Z,0.40
2018-11-27T05:22:46.288Z,0.40
2018-11-27T05:25:16.022Z,0.30
2018-11-27T05:27:53.717Z,0.30
2018-11-27T05:30:23.418Z,0.40
2018-11-27T05:32:52.328Z,0.30
2018-11-27T05:35:25.590Z,0.40
2018-11-27T05:37:54.457Z,0.40
2018-11-27T05:40:24.089Z,0.40
2018-11-27T05:42:58.189Z,0.40
2018-11-27T05:45:27.274Z,0.40
2018-11-27T05:47:56.054Z,0.40
2018-11-27T05:50:25.462Z,0.40
2018-11-27T05:52:54.298Z,0.40
2018-11-27T05:55:23.089Z,0.50
2018-11-27T05:57:53.425Z,0.40
2018-11-27T06:00:25.249Z,0.40
2018-11-27T06:02:55.353Z,0.40
2018-11-27T06:06:01.127Z,0.50
2018-11-27T06:08:30.289Z,0.50
2018-11-27T06:10:59.287Z,0.40
2018-11-27T06:13:29.442Z,0.40
2018-11-27T06:15:58.515Z,0.40
2018-11-27T06:32:27.589Z,0.50
2018-11-27T06:34:56.462Z,0.50
2018-11-27T06:37:25.350Z,0.50
2018-11-27T06:39:54.239Z,0.50
2018-11-27T06:42:23.066Z,0.50
2018-11-27T06:44:51.922Z,0.50
2018-11-27T06:47:22.176Z,0.50
2018-11-27T06:49:52.518Z,0.50
2018-11-27T06:52:23.390Z,0.60
2018-11-27T06:55:00.917Z,0.50
2018-11-27T06:57:29.862Z,0.40
2018-11-27T06:59:58.726Z,0.40
2018-11-27T07:02:27.643Z,0.40
2018-11-27T07:04:56.523Z,0.30
2018-11-27T07:07:25.539Z,0.40
2018-11-27T07:09:54.351Z,0.50
2018-11-27T07:12:23.071Z,0.50
2018-11-27T07:14:51.889Z,0.50
2018-11-27T07:17:20.865Z,0.60
2018-11-27T07:19:49.756Z,0.60
2018-11-27T07:22:18.522Z,0.60
2018-11-27T07:24:47.397Z,0.70
2018-11-27T07:27:17.171Z,0.70
2018-11-27T07:29:47.139Z,0.70
2018-11-27T07:32:17.224Z,0.70
2018-11-27T07:34:47.076Z,0.70
2018-11-27T07:37:16.006Z,0.70
2018-11-27T07:39:44.883Z,0.60
2018-11-27T07:42:13.672Z,0.60
2018-11-27T07:44:42.522Z,0.60
2018-11-27T07:47:11.365Z,0.50
2018-11-27T07:49:40.241Z,0.60
2018-11-27T07:52:09.122Z,0.60
2018-11-27T07:54:37.997Z,0.60
2018-11-27T07:57:06.859Z,0.60
2018-11-27T07:59:41.290Z,0.60
2018-11-27T08:02:10.182Z,0.50
2018-11-27T08:04:39.046Z,0.60
2018-11-27T08:07:07.861Z,0.60
2018-11-27T08:09:36.737Z,0.60
2018-11-27T08:12:05.492Z,0.60
2018-11-27T08:14:34.222Z,0.50
2018-11-27T08:17:03.070Z,0.50
2018-11-27T08:19:31.933Z,0.50
2018-11-27T08:22:00.824Z,0.50
2018-11-27T08:24:29.683Z,0.50
2018-11-27T08:26:58.528Z,0.60
2018-11-27T08:29:27.450Z,0.50
2018-11-27T08:31:56.240Z,0.50
2018-11-27T08:34:25.113Z,0.60
2018-11-27T08:36:53.933Z,0.60
2018-11-27T08:39:22.737Z,0.70
2018-11-27T08:41:51.549Z,0.70
2018-11-27T08:44:20.369Z,0.70
2018-11-27T08:46:49.200Z,0.70
2018-11-27T08:49:18.049Z,0.70
2018-11-27T08:51:46.775Z,0.70
2018-11-27T08:54:15.641Z,0.80
2018-11-27T08:56:44.655Z,0.90
2018-11-27T08:59:13.347Z,0.90
2018-11-27T09:01:43.009Z,1.00
2018-11-27T09:04:11.899Z,0.90
2018-11-27T09:06:40.854Z,0.90
2018-11-27T09:09:10.652Z,1.00
2018-11-27T09:11:39.501Z,0.90
2018-11-27T09:14:08.391Z,0.90
2018-11-27T09:16:37.250Z,0.90
2018-11-27T09:19:06.245Z,0.80
2018-11-27T09:21:35.204Z,0.80
2018-11-27T09:24:04.115Z,0.90
2018-11-27T09:26:32.986Z,0.90
2018-11-27T09:29:01.837Z,0.90
2018-11-27T09:31:30.628Z,0.90
2018-11-27T09:33:59.497Z,0.90
2018-11-27T09:36:28.923Z,1.00
2018-11-27T09:38:57.773Z,1.00
2018-11-27T09:41:26.537Z,1.10
2018-11-27T09:43:55.343Z,1.10
2018-11-27T09:46:24.137Z,1.10
2018-11-27T09:48:52.922Z,1.10
2018-11-27T09:51:21.764Z,1.10
2018-11-27T09:53:50.590Z,1.10
2018-11-27T09:56:20.436Z,1.10
2018-11-27T09:58:49.245Z,1.10
2018-11-27T10:01:18.113Z,1.20
2018-11-27T10:03:46.958Z,1.30
2018-11-27T10:06:15.793Z,1.20
2018-11-27T10:08:44.737Z,1.30
2018-11-27T10:11:13.675Z,1.40
2018-11-27T10:13:42.492Z,1.40
2018-11-27T10:16:11.353Z,1.40
2018-11-27T10:18:40.128Z,1.40
2018-11-27T10:21:08.890Z,1.50
2018-11-27T10:23:37.676Z,1.50
2018-11-27T10:26:06.653Z,1.50
2018-11-27T10:28:35.391Z,1.60
2018-11-27T10:31:04.167Z,1.70
2018-11-27T10:33:32.933Z,1.80
2018-11-27T10:36:01.673Z,1.90
2018-11-27T10:38:30.538Z,1.90
2018-11-27T10:40:59.313Z,2.00
2018-11-27T10:43:28.129Z,2.00
2018-11-27T10:45:57.077Z,1.90
2018-11-27T10:48:25.939Z,1.90
2018-11-27T10:50:54.827Z,1.90
2018-11-27T10:53:23.741Z,2.00
2018-11-27T10:55:53.306Z,2.00
2018-11-27T10:58:22.245Z,2.00
2018-11-27T11:00:56.174Z,2.10
2018-11-27T11:03:25.513Z,2.20
2018-11-27T11:05:54.933Z,2.30
2018-11-27T11:08:23.775Z,2.40
2018-11-27T11:10:52.853Z,2.50
2018-11-27T11:13:21.739Z,2.60
2018-11-27T11:15:50.709Z,2.70
2018-11-27T11:18:19.573Z,2.70
2018-11-27T11:20:48.414Z,2.60
2018-11-27T11:23:17.289Z,2.60
2018-11-27T11:25:46.075Z,2.50
2018-11-27T11:28:15.671Z,2.50
2018-11-27T11:30:44.564Z,2.60
2018-11-27T11:33:13.389Z,2.60
2018-11-27T11:35:42.223Z,2.70
2018-11-27T11:38:11.101Z,2.60
2018-11-27T11:40:39.862Z,2.60
2018-11-27T11:43:08.689Z,2.70
2018-11-27T11:45:37.485Z,2.70
2018-11-27T11:48:06.618Z,2.70
2018-11-27T11:50:35.842Z,2.80
2018-11-27T11:53:11.418Z,2.80
2018-11-27T11:55:40.206Z,2.80
2018-11-27T11:58:09.290Z,3.00
2018-11-27T12:00:42.034Z,3.00
2018-11-27T12:03:10.894Z,3.00
2018-11-27T12:05:39.741Z,3.20
2018-11-27T12:08:09.229Z,3.20
2018-11-27T12:10:38.498Z,3.20
2018-11-27T12:13:08.851Z,3.20
2018-11-27T12:15:43.039Z,3.10
2018-11-27T12:18:12.014Z,2.90
2018-11-27T12:20:41.272Z,2.80
2018-11-27T12:23:11.142Z,2.90
2018-11-27T12:25:40.389Z,3.00
2018-11-27T12:28:14.639Z,3.00
2018-11-27T12:30:38.942Z,3.00
2018-11-27T12:33:07.899Z,3.00
2018-11-27T12:35:36.778Z,3.10
2018-11-27T12:38:05.645Z,3.10
2018-11-27T12:40:34.510Z,3.20
2018-11-27T12:43:03.305Z,3.20
2018-11-27T12:45:32.980Z,3.10
2018-11-27T12:48:02.818Z,3.10
2018-11-27T12:50:43.534Z,3.10
2018-11-27T12:53:16.800Z,3.20
2018-11-27T12:55:44.216Z,3.20
2018-11-27T12:58:13.041Z,3.20
2018-11-27T13:00:41.850Z,3.20
2018-11-27T13:03:10.690Z,3.20
2018-11-27T13:05:41.690Z,3.20
2018-11-27T13:08:21.282Z,3.10
2018-11-27T13:10:50.083Z,3.20
2018-11-27T13:13:18.922Z,3.20
2018-11-27T13:15:47.744Z,3.20
2018-11-27T13:18:16.569Z,3.20
2018-11-27T13:20:45.459Z,3.30
2018-11-27T13:23:14.278Z,3.20
2018-11-27T13:25:43.164Z,3.10
2018-11-27T13:28:13.297Z,3.20
2018-11-27T13:30:46.224Z,3.20
2018-11-27T13:33:18.914Z,3.20
2018-11-27T13:35:47.714Z,3.20
2018-11-27T13:38:16.490Z,3.20
2018-11-27T13:40:45.507Z,3.20
2018-11-27T13:43:21.120Z,3.20
2018-11-27T13:45:50.069Z,3.20
2018-11-27T13:48:18.963Z,3.20
2018-11-27T13:50:47.790Z,3.20
2018-11-27T13:53:16.595Z,3.20
2018-11-27T13:55:45.370Z,3.10
2018-11-27T13:58:14.208Z,3.10
2018-11-27T14:00:43.328Z,3.10
2018-11-27T14:03:12.242Z,3.00
2018-11-27T14:05:41.099Z,3.10
2018-11-27T14:08:10.766Z,3.10
2018-11-27T14:10:39.901Z,3.10
2018-11-27T14:13:09.359Z,3.00
2018-11-27T14:15:38.458Z,2.90
2018-11-27T14:18:07.702Z,2.70
2018-11-27T14:20:36.670Z,2.70
2018-11-27T14:23:05.858Z,2.60
2018-11-27T14:25:34.704Z,2.70
2018-11-27T14:28:03.646Z,2.60
2018-11-27T14:30:32.510Z,2.60
2018-11-27T14:33:01.372Z,2.60
2018-11-27T14:35:30.205Z,2.60
2018-11-27T14:37:59.053Z,2.50
2018-11-27T14:40:28.430Z,2.30
2018-11-27T14:42:57.274Z,2.30
2018-11-27T14:45:27.085Z,2.30
2018-11-27T14:47:57.226Z,2.30
2018-11-27T14:50:26.029Z,2.20
2018-11-27T14:52:54.869Z,2.30
2018-11-27T14:55:27.709Z,2.30
2018-11-27T14:57:56.557Z,2.30
2018-11-27T15:00:25.939Z,2.30
2018-11-27T15:02:54.933Z,2.20
2018-11-27T15:05:31.863Z,2.20
2018-11-27T15:08:00.750Z,2.20
2018-11-27T15:10:29.586Z,2.20
2018-11-27T15:12:58.539Z,2.20
2018-11-27T15:15:27.355Z,2.20
2018-11-27T15:17:56.202Z,2.20
2018-11-27T15:20:25.078Z,2.10
2018-11-27T15:22:53.876Z,2.20
2018-11-27T15:25:22.757Z,2.20
2018-11-27T15:27:51.621Z,2.30
2018-11-27T15:30:22.509Z,2.30
2018-11-27T15:32:52.311Z,2.30
2018-11-27T15:35:21.309Z,2.30
2018-11-27T15:37:50.281Z,2.30
2018-11-27T15:40:20.978Z,2.30
2018-11-27T15:42:50.174Z,2.30
2018-11-27T15:45:20.362Z,2.40
2018-11-27T15:47:49.293Z,2.30
2018-11-27T15:50:18.418Z,2.30
2018-11-27T15:52:47.405Z,2.30
2018-11-27T15:55:19.905Z,2.40
2018-11-27T15:57:50.403Z,2.30
2018-11-27T16:00:21.068Z,2.30
2018-11-27T16:03:04.189Z,2.30
2018-11-27T16:08:53.249Z,2.30
2018-11-27T16:11:24.880Z,2.40
2018-11-27T16:13:55.742Z,2.40
2018-11-27T16:16:31.641Z,2.90
2018-11-27T16:19:02.999Z,2.90
2018-11-27T16:21:35.491Z,2.80
2018-11-27T16:24:05.147Z,2.70
2018-11-27T16:26:34.323Z,2.70
2018-11-27T16:29:03.374Z,2.60
2018-11-27T16:31:36.388Z,2.50
2018-11-27T16:34:05.954Z,2.50
2018-11-27T16:36:36.614Z,2.40
2018-11-27T16:39:11.390Z,2.30
2018-11-27T16:41:40.376Z,2.30
2018-11-27T16:44:09.502Z,2.30
2018-11-27T16:46:38.653Z,2.30
2018-11-27T16:49:07.819Z,2.30
2018-11-27T16:51:36.698Z,2.30
2018-11-27T16:54:05.845Z,3.50
2018-11-27T16:56:34.457Z,5.20
2018-11-27T16:59:03.055Z,6.10
2018-11-27T17:01:31.826Z,6.90
2018-11-27T17:04:00.733Z,7.30
2018-11-27T17:06:29.675Z,7.70
2018-11-27T17:08:58.529Z,7.10
2018-11-27T17:11:27.352Z,7.50
2018-11-27T17:13:56.230Z,7.60
2018-11-27T17:16:25.010Z,7.30
2018-11-27T17:18:53.888Z,7.10
2018-11-27T17:21:22.758Z,6.60
2018-11-27T17:23:51.610Z,5.80
2018-11-27T17:26:20.378Z,5.10
2018-11-27T17:28:49.308Z,4.40
2018-11-27T17:31:18.245Z,4.00
2018-11-27T17:33:51.986Z,3.70
2018-11-27T17:36:20.815Z,3.50
2018-11-27T17:38:49.673Z,3.20
2018-11-27T17:41:18.534Z,3.00
2018-11-27T17:43:47.504Z,2.90
2018-11-27T17:46:16.357Z,2.80
2018-11-27T17:48:45.211Z,2.80
2018-11-27T17:51:14.009Z,2.80
2018-11-27T17:53:43.005Z,2.60
2018-11-27T17:56:11.943Z,2.60
2018-11-27T17:58:41.133Z,2.70
2018-11-27T18:01:11.779Z,2.60
2018-11-27T18:03:40.662Z,2.60
2018-11-27T18:06:09.572Z,2.60
2018-11-27T18:08:38.491Z,2.50
2018-11-27T18:11:07.510Z,2.50
2018-11-27T18:13:36.465Z,2.50
2018-11-27T18:16:05.622Z,2.40
2018-11-27T18:18:34.677Z,2.50
2018-11-27T18:21:03.843Z,2.50
2018-11-27T18:23:32.778Z,2.50
2018-11-27T18:26:01.719Z,2.50
2018-11-27T18:28:30.765Z,2.40
2018-11-27T18:30:59.816Z,2.50
2018-11-27T18:33:28.810Z,2.60
2018-11-27T18:35:57.859Z,2.40
2018-11-27T18:38:26.943Z,2.40
2018-11-27T18:40:55.898Z,2.40
2018-11-27T18:43:25.082Z,2.40
2018-11-27T18:45:54.489Z,2.40
2018-11-27T18:48:23.467Z,2.30
2018-11-27T18:50:52.362Z,2.30
2018-11-27T18:53:21.478Z,2.40
2018-11-27T18:55:50.512Z,2.40
2018-11-27T18:58:19.471Z,2.50
2018-11-27T19:00:48.623Z,2.50
2018-11-27T19:03:17.851Z,2.50
2018-11-27T19:05:47.012Z,2.50
2018-11-27T19:08:16.052Z,2.50
2018-11-27T19:10:45.008Z,2.50
2018-11-27T19:13:14.092Z,2.50
2018-11-27T19:15:45.747Z,2.50
2018-11-27T19:18:22.075Z,2.60
2018-11-27T19:20:51.178Z,2.50
2018-11-27T19:23:21.833Z,2.50
2018-11-27T19:25:50.783Z,2.50
2018-11-27T19:28:19.676Z,2.60
2018-11-27T19:30:48.869Z,2.60
2018-11-27T19:33:17.891Z,2.60
2018-11-27T19:35:46.899Z,2.60
2018-11-27T19:38:17.343Z,2.60
2018-11-27T19:40:46.267Z,2.70
2018-11-27T19:43:15.294Z,2.70
2018-11-27T19:45:44.192Z,2.70
2018-11-27T19:48:14.130Z,2.70
2018-11-27T19:50:43.099Z,2.80
2018-11-27T19:53:15.008Z,2.70
2018-11-27T19:55:44.604Z,2.80
2018-11-27T19:58:13.736Z,2.80
2018-11-27T20:00:42.713Z,2.70
2018-11-27T20:03:12.352Z,2.80
2018-11-27T20:05:41.441Z,2.70
2018-11-27T20:08:13.426Z,2.70
2018-11-27T20:10:42.603Z,2.70
2018-11-27T20:13:11.534Z,2.70
2018-11-27T20:15:40.484Z,2.70
2018-11-27T20:18:09.419Z,2.70
2018-11-27T20:20:38.409Z,2.70
2018-11-27T20:23:07.629Z,2.70
2018-11-27T20:25:37.210Z,2.70
2018-11-27T20:28:07.226Z,2.70
2018-11-27T20:30:36.902Z,2.80
2018-11-27T20:43:09.780Z,2.70
2018-11-27T20:45:38.830Z,2.70
2018-11-27T20:48:13.975Z,2.60
2018-11-27T20:50:43.079Z,2.70
2018-11-27T20:53:12.121Z,2.70
2018-11-27T20:55:42.205Z,2.70
2018-11-27T20:58:11.400Z,2.70
2018-11-27T21:00:42.883Z,2.70
2018-11-27T21:03:12.480Z,2.70
2018-11-27T21:05:41.596Z,2.70
2018-11-27T21:08:10.486Z,2.80
2018-11-27T21:10:39.866Z,2.70
2018-11-27T21:13:10.220Z,2.80
2018-11-27T21:15:40.300Z,2.80
2018-11-27T21:18:10.201Z,2.90
2018-11-27T21:20:39.612Z,2.80
2018-11-27T21:23:08.565Z,2.80
2018-11-27T21:25:37.514Z,2.70
2018-11-27T21:28:09.983Z,2.70
2018-11-27T21:30:38.953Z,2.70
2018-11-27T21:33:08.039Z,2.70
2018-11-27T21:35:37.087Z,2.70
2018-11-27T21:38:06.434Z,2.60
2018-11-27T21:40:35.747Z,2.60
2018-11-27T21:43:04.818Z,2.60
2018-11-27T21:45:33.713Z,2.50
2018-11-27T21:48:02.885Z,2.50
2018-11-27T21:50:36.980Z,2.50
2018-11-27T21:53:05.934Z,2.50
2018-11-27T21:55:35.485Z,2.50
2018-11-27T21:58:03.712Z,2.50
2018-11-27T22:00:32.816Z,2.50
2018-11-27T22:03:01.695Z,2.50
2018-11-27T22:05:30.645Z,2.50
2018-11-27T22:07:59.874Z,2.50
2018-11-27T22:10:28.826Z,2.50
2018-11-27T22:12:59.248Z,2.50
2018-11-27T22:15:31.930Z,2.50
2018-11-27T22:18:00.838Z,2.50
2018-11-27T22:20:29.763Z,2.50
2018-11-27T22:22:59.766Z,2.50
2018-11-27T22:25:28.716Z,2.50
2018-11-27T22:27:57.589Z,2.40
2018-11-27T22:30:26.460Z,2.40
2018-11-27T22:32:55.866Z,2.30
2018-11-27T22:35:24.773Z,2.30
2018-11-27T22:37:53.646Z,2.40
2018-11-27T22:40:24.059Z,2.30
2018-11-27T22:42:55.035Z,2.30
2018-11-27T22:45:26.765Z,2.30
2018-11-27T22:47:55.726Z,2.20
2018-11-27T22:50:25.154Z,2.20
2018-11-27T22:52:54.038Z,2.10
2018-11-27T22:55:23.091Z,2.20
2018-11-27T22:57:51.976Z,2.20
2018-11-27T23:00:27.029Z,2.20
2018-11-27T23:02:56.006Z,2.20
2018-11-27T23:05:24.921Z,2.20
2018-11-27T23:07:54.033Z,2.20
2018-11-27T23:10:22.850Z,2.20
2018-11-27T23:12:51.714Z,2.20
2018-11-27T23:15:21.633Z,2.20
2018-11-27T23:17:50.432Z,2.20
2018-11-27T23:20:19.742Z,2.20
2018-11-27T23:22:48.699Z,2.30
2018-11-27T23:25:18.706Z,2.20
2018-11-27T23:27:47.618Z,2.10
2018-11-27T23:30:18.492Z,2.10
2018-11-27T23:32:47.434Z,2.10
2018-11-27T23:35:16.455Z,2.10
2018-11-27T23:37:45.255Z,2.10
2018-11-27T23:40:15.367Z,2.20
2018-11-27T23:42:44.388Z,2.20
2018-11-27T23:45:15.960Z,2.10
2018-11-27T23:47:44.805Z,2.10
2018-11-27T23:50:14.731Z,2.10
2018-11-27T23:52:43.719Z,2.10
2018-11-27T23:55:13.488Z,2.10
2018-11-27T23:57:42.641Z,2.10
